createdAt,value
2018-08-10T00:01:16.329Z,22.63
2018-08-10T00:03:45.638Z,22.89
2018-08-10T00:06:15.045Z,22.69
2018-08-10T00:08:44.566Z,22.33
2018-08-10T00:11:13.912Z,22.32
2018-08-10T00:13:43.237Z,22.19
2018-08-10T00:16:12.694Z,22.33
2018-08-10T00:18:41.953Z,21.87
2018-08-10T00:21:11.447Z,21.92
2018-08-10T00:23:40.715Z,21.82
2018-08-10T00:26:09.890Z,21.98
2018-08-10T00:28:39.156Z,21.60
2018-08-10T00:31:08.592Z,21.62
2018-08-10T00:33:38.754Z,21.80
2018-08-10T00:36:08.034Z,21.87
2018-08-10T00:38:37.229Z,21.78
2018-08-10T00:41:06.721Z,22.01
2018-08-10T00:43:35.988Z,21.79
2018-08-10T00:46:05.324Z,21.74
2018-08-10T00:48:34.581Z,21.88
2018-08-10T00:51:03.790Z,22.15
2018-08-10T00:53:33.048Z,22.14
2018-08-10T00:56:02.336Z,22.18
2018-08-10T00:58:31.446Z,22.18
2018-08-10T01:01:00.793Z,22.12
2018-08-10T01:03:30.057Z,22.40
2018-08-10T01:05:59.279Z,22.26
2018-08-10T01:08:28.570Z,22.51
2018-08-10T01:10:57.909Z,22.13
2018-08-10T01:13:27.267Z,22.15
2018-08-10T01:15:56.633Z,22.04
2018-08-10T01:18:25.866Z,22.25
2018-08-10T01:20:55.192Z,22.01
2018-08-10T01:23:25.609Z,21.93
2018-08-10T01:25:54.801Z,22.11
2018-08-10T01:28:24.128Z,21.86
2018-08-10T01:30:53.354Z,21.71
2018-08-10T01:33:22.592Z,21.58
2018-08-10T01:35:51.891Z,21.24
2018-08-10T01:38:21.149Z,21.08
2018-08-10T01:40:50.394Z,20.94
2018-08-10T01:43:19.814Z,21.08
2018-08-10T01:45:49.487Z,21.18
2018-08-10T01:48:18.845Z,21.21
2018-08-10T01:50:47.997Z,20.77
2018-08-10T01:53:17.330Z,20.63
2018-08-10T01:55:46.685Z,20.98
2018-08-10T01:58:15.926Z,21.16
2018-08-10T02:00:45.073Z,21.05
2018-08-10T02:03:14.408Z,20.62
2018-08-10T02:05:43.758Z,20.83
2018-08-10T02:08:12.988Z,20.89
2018-08-10T02:10:42.238Z,20.83
2018-08-10T02:13:11.633Z,21.00
2018-08-10T02:15:40.981Z,20.55
2018-08-10T02:18:10.266Z,20.64
2018-08-10T02:20:39.405Z,20.71
2018-08-10T02:23:08.878Z,20.79
2018-08-10T02:25:38.129Z,20.55
2018-08-10T02:28:07.303Z,20.70
2018-08-10T02:30:36.626Z,20.75
2018-08-10T02:33:05.745Z,20.82
2018-08-10T02:35:35.121Z,20.89
2018-08-10T02:38:04.261Z,20.75
2018-08-10T02:40:33.343Z,20.81
2018-08-10T02:43:02.509Z,20.68
2018-08-10T02:46:10.181Z,20.48
2018-08-10T02:48:39.467Z,20.32
2018-08-10T02:51:08.782Z,20.28
2018-08-10T02:53:38.095Z,20.31
2018-08-10T02:56:07.486Z,19.97
2018-08-10T02:58:36.743Z,20.00
2018-08-10T03:01:06.150Z,19.97
2018-08-10T03:03:35.546Z,19.88
2018-08-10T03:06:05.223Z,19.66
2018-08-10T03:08:34.600Z,19.69
2018-08-10T03:11:03.842Z,19.74
2018-08-10T03:13:33.073Z,19.53
2018-08-10T03:16:02.413Z,19.43
2018-08-10T03:18:31.699Z,19.42
2018-08-10T03:21:01.126Z,19.50
2018-08-10T03:23:30.406Z,19.50
2018-08-10T03:25:59.777Z,19.60
2018-08-10T03:28:29.151Z,19.40
2018-08-10T03:30:58.422Z,19.30
2018-08-10T03:33:27.799Z,19.40
2018-08-10T03:35:57.337Z,19.24
2018-08-10T03:38:26.811Z,19.10
2018-08-10T03:40:56.164Z,19.18
2018-08-10T03:43:25.538Z,19.04
2018-08-10T03:45:56.853Z,19.06
2018-08-10T03:48:32.612Z,19.09
2018-08-10T03:51:06.172Z,19.04
2018-08-10T03:53:37.438Z,19.13
2018-08-10T03:56:08.642Z,18.86
2018-08-10T03:58:38.302Z,18.71
2018-08-10T04:01:07.821Z,18.67
2018-08-10T04:03:37.254Z,18.53
2018-08-10T04:06:06.726Z,18.54
2018-08-10T04:08:36.085Z,18.65
2018-08-10T04:11:05.635Z,18.64
2018-08-10T04:13:34.941Z,18.71
2018-08-10T04:16:04.369Z,18.79
2018-08-10T04:18:33.946Z,18.72
2018-08-10T04:21:03.373Z,18.67
2018-08-10T04:23:32.646Z,18.78
2018-08-10T04:26:02.373Z,18.66
2018-08-10T04:28:31.679Z,18.54
2018-08-10T04:31:01.063Z,18.62
2018-08-10T04:33:30.517Z,18.49
2018-08-10T04:35:59.811Z,18.76
2018-08-10T04:38:29.150Z,18.68
2018-08-10T04:40:58.446Z,18.72
2018-08-10T04:43:27.661Z,18.83
2018-08-10T04:45:56.930Z,18.85
2018-08-10T04:48:26.241Z,18.76
2018-08-10T04:50:55.489Z,18.68
2018-08-10T04:53:24.877Z,18.71
2018-08-10T04:55:57.141Z,18.64
2018-08-10T04:58:26.450Z,18.61
2018-08-10T05:00:55.664Z,18.85
2018-08-10T05:03:25.028Z,18.69
2018-08-10T05:05:54.297Z,18.60
2018-08-10T05:08:23.472Z,18.62
2018-08-10T05:10:52.977Z,18.72
2018-08-10T05:13:22.286Z,18.52
2018-08-10T05:15:52.713Z,18.50
2018-08-10T05:18:21.830Z,18.55
2018-08-10T05:20:52.145Z,18.66
2018-08-10T05:23:21.489Z,18.70
2018-08-10T05:25:50.767Z,18.73
2018-08-10T05:28:20.061Z,18.51
2018-08-10T05:30:49.495Z,18.46
2018-08-10T05:33:18.813Z,18.45
2018-08-10T05:35:47.900Z,18.45
2018-08-10T05:38:17.022Z,18.39
2018-08-10T05:40:46.308Z,18.42
2018-08-10T05:43:15.740Z,18.39
2018-08-10T05:45:45.002Z,18.50
2018-08-10T05:48:14.145Z,18.33
2018-08-10T05:50:43.366Z,18.12
2018-08-10T05:53:12.628Z,18.06
2018-08-10T05:55:41.861Z,18.01
2018-08-10T05:58:11.125Z,18.11
2018-08-10T06:00:40.333Z,17.96
2018-08-10T06:03:09.517Z,17.84
2018-08-10T06:05:38.756Z,18.08
2018-08-10T06:08:08.026Z,17.94
2018-08-10T06:10:37.162Z,18.06
2018-08-10T06:13:06.755Z,18.03
2018-08-10T06:15:36.090Z,17.91
2018-08-10T06:18:05.441Z,17.94
2018-08-10T06:20:34.665Z,17.88
2018-08-10T06:23:04.034Z,17.78
2018-08-10T06:25:33.182Z,17.99
2018-08-10T06:28:02.265Z,18.16
2018-08-10T06:30:31.454Z,17.89
2018-08-10T06:33:00.605Z,17.93
2018-08-10T06:35:29.893Z,18.11
2018-08-10T06:37:58.967Z,18.27
2018-08-10T06:40:28.393Z,18.50
2018-08-10T06:42:57.544Z,18.82
2018-08-10T06:45:26.828Z,18.84
2018-08-10T06:47:56.046Z,18.75
2018-08-10T06:50:25.204Z,18.82
2018-08-10T06:52:54.654Z,18.93
2018-08-10T06:55:23.773Z,19.15
2018-08-10T06:57:53.166Z,19.06
2018-08-10T07:00:22.231Z,19.24
2018-08-10T07:02:51.493Z,19.43
2018-08-10T07:05:20.737Z,19.33
2018-08-10T07:07:49.997Z,19.17
2018-08-10T07:10:19.266Z,19.16
2018-08-10T07:12:48.867Z,19.21
2018-08-10T07:15:19.493Z,19.35
2018-08-10T07:17:49.104Z,19.35
2018-08-10T07:20:18.285Z,19.55
2018-08-10T07:22:47.483Z,19.72
2018-08-10T07:25:16.565Z,19.55
2018-08-10T07:27:45.932Z,19.58
2018-08-10T07:30:15.303Z,19.77
2018-08-10T07:32:44.337Z,20.07
2018-08-10T07:35:13.694Z,20.08
2018-08-10T07:37:42.849Z,19.87
2018-08-10T07:40:12.058Z,20.07
2018-08-10T07:42:41.312Z,20.09
2018-08-10T07:45:10.590Z,19.96
2018-08-10T07:47:39.857Z,20.18
2018-08-10T07:50:10.134Z,20.45
2018-08-10T07:52:39.673Z,20.47
2018-08-10T07:55:09.100Z,20.89
2018-08-10T07:57:38.541Z,21.21
2018-08-10T08:00:08.229Z,21.10
2018-08-10T08:02:38.224Z,20.96
2018-08-10T08:05:07.797Z,20.95
2018-08-10T08:07:37.021Z,20.94
2018-08-10T08:10:06.605Z,20.97
2018-08-10T08:12:35.853Z,20.91
2018-08-10T08:15:05.692Z,20.70
2018-08-10T08:17:35.123Z,20.96
2018-08-10T08:20:05.054Z,20.99
2018-08-10T08:22:34.482Z,21.10
2018-08-10T08:25:03.916Z,21.26
2018-08-10T08:27:33.441Z,21.34
2018-08-10T08:30:02.792Z,21.54
2018-08-10T08:32:32.106Z,21.84
2018-08-10T08:35:01.684Z,21.89
2018-08-10T08:37:30.906Z,21.95
2018-08-10T08:40:14.566Z,22.11
2018-08-10T08:42:45.211Z,22.29
2018-08-10T08:45:58.788Z,22.35
2018-08-10T08:48:29.170Z,22.33
2018-08-10T08:50:59.946Z,22.31
2018-08-10T08:53:29.283Z,22.66
2018-08-10T08:56:01.109Z,22.80
2018-08-10T08:58:30.941Z,23.00
2018-08-10T09:01:00.376Z,23.10
2018-08-10T09:03:41.350Z,23.41
2018-08-10T09:06:11.095Z,23.32
2018-08-10T09:08:50.602Z,23.20
2018-08-10T09:11:19.894Z,23.39
2018-08-10T09:14:57.072Z,23.86
2018-08-10T09:17:26.466Z,24.05
2018-08-10T09:19:55.890Z,24.43
2018-08-10T09:22:25.168Z,24.46
2018-08-10T09:24:55.373Z,24.04
2018-08-10T09:27:24.990Z,24.12
2018-08-10T09:29:55.001Z,24.50
2018-08-10T09:32:24.252Z,24.69
2018-08-10T09:34:53.613Z,24.90
2018-08-10T09:37:22.784Z,24.89
2018-08-10T09:39:52.041Z,24.87
2018-08-10T09:42:21.539Z,24.06
2018-08-10T09:44:50.980Z,23.88
2018-08-10T09:47:20.445Z,23.89
2018-08-10T09:49:50.637Z,24.02
2018-08-10T09:52:26.033Z,23.37
2018-08-10T09:55:43.008Z,23.31
2018-08-10T09:58:19.161Z,23.50
2018-08-10T10:00:54.083Z,23.45
2018-08-10T10:03:25.506Z,23.74
2018-08-10T10:05:58.387Z,24.52
2018-08-10T10:08:27.654Z,24.34
2018-08-10T10:10:57.814Z,24.53
2018-08-10T10:13:28.049Z,25.21
2018-08-10T10:15:57.364Z,25.59
2018-08-10T10:18:26.678Z,25.50
2018-08-10T10:20:55.935Z,25.69
2018-08-10T10:23:25.249Z,26.08
2018-08-10T10:25:54.557Z,25.73
2018-08-10T10:28:23.957Z,25.77
2018-08-10T10:30:53.390Z,26.42
2018-08-10T10:33:22.727Z,26.12
2018-08-10T10:35:51.929Z,25.77
2018-08-10T10:38:21.061Z,25.14
2018-08-10T10:40:50.238Z,25.13
2018-08-10T10:43:19.516Z,25.64
2018-08-10T10:45:49.741Z,25.64
2018-08-10T10:48:18.989Z,25.26
2018-08-10T10:50:48.300Z,25.07
2018-08-10T10:53:17.690Z,24.91
2018-08-10T10:55:46.949Z,24.98
2018-08-10T10:58:16.282Z,24.83
2018-08-10T11:00:46.450Z,25.25
2018-08-10T11:03:15.842Z,25.50
2018-08-10T11:05:44.957Z,25.28
2018-08-10T11:08:14.413Z,25.23
2018-08-10T11:10:43.884Z,25.44
2018-08-10T11:13:13.000Z,25.59
2018-08-10T11:15:42.141Z,25.50
2018-08-10T11:18:11.390Z,25.57
2018-08-10T11:20:40.773Z,25.86
2018-08-10T11:23:09.868Z,25.73
2018-08-10T11:25:39.221Z,25.80
2018-08-10T11:28:08.491Z,26.27
2018-08-10T11:30:37.739Z,26.66
2018-08-10T11:33:08.091Z,26.85
2018-08-10T11:35:37.371Z,26.46
2018-08-10T11:38:06.909Z,26.60
2018-08-10T11:40:37.203Z,26.65
2018-08-10T11:43:06.540Z,26.79
2018-08-10T11:45:35.799Z,26.93
2018-08-10T11:48:05.200Z,26.86
2018-08-10T11:50:34.721Z,26.86
2018-08-10T11:53:03.933Z,26.68
2018-08-10T11:55:33.313Z,26.63
2018-08-10T11:58:02.742Z,26.76
2018-08-10T12:00:32.009Z,26.50
2018-08-10T12:03:01.311Z,25.97
2018-08-10T12:05:30.498Z,25.28
2018-08-10T12:07:59.908Z,25.11
2018-08-10T12:10:29.288Z,24.97
2018-08-10T12:12:58.633Z,24.82
2018-08-10T12:15:28.077Z,25.00
2018-08-10T12:17:57.418Z,25.13
2018-08-10T12:20:26.781Z,24.94
2018-08-10T12:22:56.037Z,24.92
2018-08-10T12:25:25.339Z,25.39
2018-08-10T12:27:54.536Z,25.80
2018-08-10T12:30:23.969Z,26.10
2018-08-10T12:32:53.145Z,26.44
2018-08-10T12:35:22.540Z,26.48
2018-08-10T12:37:51.959Z,26.38
2018-08-10T12:40:21.149Z,26.31
2018-08-10T12:42:50.574Z,26.25
2018-08-10T12:45:19.864Z,26.53
2018-08-10T12:47:49.130Z,27.30
2018-08-10T12:50:18.494Z,27.13
2018-08-10T12:52:47.685Z,27.17
2018-08-10T12:55:16.882Z,27.57
2018-08-10T12:57:46.017Z,27.76
2018-08-10T13:00:15.310Z,27.31
2018-08-10T13:02:44.645Z,27.66
2018-08-10T13:05:13.988Z,27.11
2018-08-10T13:07:43.297Z,26.55
2018-08-10T13:10:13.191Z,26.28
2018-08-10T13:12:42.482Z,26.37
2018-08-10T13:15:13.110Z,24.77
2018-08-10T13:17:42.266Z,25.33
2018-08-10T13:20:14.168Z,25.51
2018-08-10T13:22:43.635Z,26.01
2018-08-10T13:25:12.953Z,26.37
2018-08-10T13:27:42.220Z,26.58
2018-08-10T13:30:12.558Z,26.75
2018-08-10T13:32:41.967Z,27.06
2018-08-10T13:35:11.326Z,27.25
2018-08-10T13:37:40.616Z,27.13
2018-08-10T13:40:11.141Z,27.04
2018-08-10T13:42:40.386Z,26.83
2018-08-10T13:45:11.449Z,27.08
2018-08-10T13:47:40.707Z,26.54
2018-08-10T13:50:14.264Z,26.46
2018-08-10T13:52:43.519Z,26.51
2018-08-10T13:55:18.617Z,26.88
2018-08-10T13:57:48.797Z,27.05
2018-08-10T14:00:20.050Z,27.19
2018-08-10T14:02:51.376Z,27.04
2018-08-10T14:05:21.420Z,27.26
2018-08-10T14:07:51.358Z,27.24
2018-08-10T14:10:20.739Z,26.76
2018-08-10T14:12:50.020Z,26.65
2018-08-10T14:15:19.426Z,26.49
2018-08-10T14:17:49.295Z,26.45
2018-08-10T14:20:18.633Z,26.29
2018-08-10T14:22:47.822Z,26.19
2018-08-10T14:25:17.117Z,26.44
2018-08-10T14:27:47.471Z,26.76
2018-08-10T14:30:17.270Z,27.12
2018-08-10T14:32:46.506Z,26.98
2018-08-10T14:35:15.791Z,27.27
2018-08-10T14:37:45.006Z,26.94
2018-08-10T14:40:14.693Z,26.96
2018-08-10T14:42:43.909Z,27.24
2018-08-10T14:45:14.760Z,27.00
2018-08-10T14:47:44.103Z,26.88
2018-08-10T14:50:14.552Z,26.82
2018-08-10T14:52:43.681Z,26.60
2018-08-10T14:55:14.659Z,26.76
2018-08-10T14:57:43.804Z,26.81
2018-08-10T15:00:17.017Z,26.09
2018-08-10T15:02:46.668Z,26.62
2018-08-10T15:05:16.068Z,26.56
2018-08-10T15:07:45.689Z,26.64
2018-08-10T15:10:16.180Z,26.78
2018-08-10T15:12:46.669Z,26.21
2018-08-10T15:15:18.081Z,26.14
2018-08-10T15:17:47.811Z,25.86
2018-08-10T15:20:18.513Z,25.41
2018-08-10T15:22:48.393Z,25.17
2018-08-10T15:25:17.592Z,25.30
2018-08-10T15:27:47.021Z,25.33
2018-08-10T15:30:18.173Z,25.54
2018-08-10T15:32:47.535Z,26.04
2018-08-10T15:35:17.504Z,26.16
2018-08-10T15:37:47.025Z,26.43
2018-08-10T15:40:18.074Z,26.41
2018-08-10T15:42:47.317Z,26.20
2018-08-10T15:45:17.687Z,26.46
2018-08-10T15:47:47.079Z,26.82
2018-08-10T15:50:16.457Z,26.77
2018-08-10T15:52:46.425Z,26.76
2018-08-10T15:55:15.849Z,26.48
2018-08-10T15:57:45.310Z,26.35
2018-08-10T16:00:20.189Z,26.16
2018-08-10T16:02:49.670Z,25.53
2018-08-10T16:05:18.995Z,25.38
2018-08-10T16:07:48.185Z,25.47
2018-08-10T16:10:17.530Z,25.55
2018-08-10T16:12:46.964Z,25.46
2018-08-10T16:15:17.717Z,25.14
2018-08-10T16:17:47.215Z,24.84
2018-08-10T16:20:19.977Z,24.93
2018-08-10T16:22:50.790Z,24.97
2018-08-10T16:25:20.203Z,25.46
2018-08-10T16:27:50.587Z,25.99
2018-08-10T16:30:19.890Z,25.93
2018-08-10T16:32:53.481Z,26.20
2018-08-10T16:35:31.590Z,26.54
2018-08-10T16:38:00.863Z,26.61
2018-08-10T16:40:32.033Z,26.47
2018-08-10T16:43:01.314Z,26.35
2018-08-10T16:45:30.629Z,26.65
2018-08-10T16:47:59.835Z,26.87
2018-08-10T16:50:29.222Z,26.87
2018-08-10T16:52:58.643Z,26.91
2018-08-10T16:55:27.769Z,26.61
2018-08-10T16:57:57.067Z,26.45
2018-08-10T17:00:26.330Z,26.38
2018-08-10T17:02:55.601Z,26.46
2018-08-10T17:05:24.890Z,26.09
2018-08-10T17:07:54.012Z,25.71
2018-08-10T17:10:23.205Z,25.24
2018-08-10T17:12:52.439Z,25.05
2018-08-10T17:15:21.649Z,24.98
2018-08-10T17:17:51.027Z,24.58
2018-08-10T17:20:20.221Z,24.57
2018-08-10T17:22:49.535Z,24.32
2018-08-10T17:25:20.331Z,24.24
2018-08-10T17:27:49.596Z,24.40
2018-08-10T17:30:20.027Z,24.42
2018-08-10T17:32:49.556Z,24.42
2018-08-10T17:35:18.877Z,24.50
2018-08-10T17:37:48.574Z,24.59
2018-08-10T17:40:18.024Z,24.56
2018-08-10T17:42:47.294Z,24.55
2018-08-10T17:45:18.635Z,24.63
2018-08-10T17:47:48.482Z,24.72
2018-08-10T17:50:21.129Z,25.18
2018-08-10T17:52:52.675Z,24.79
2018-08-10T17:55:22.585Z,24.94
2018-08-10T17:57:51.906Z,24.79
2018-08-10T18:00:22.860Z,24.63
2018-08-10T18:02:52.154Z,24.82
2018-08-10T18:05:21.438Z,24.82
2018-08-10T18:07:50.641Z,24.68
2018-08-10T18:10:20.545Z,24.45
2018-08-10T18:12:51.057Z,24.22
2018-08-10T18:15:21.008Z,23.81
2018-08-10T18:17:50.589Z,24.27
2018-08-10T18:20:22.023Z,24.41
2018-08-10T18:22:52.512Z,24.35
2018-08-10T18:25:22.701Z,24.38
2018-08-10T18:27:52.023Z,24.17
2018-08-10T18:30:23.603Z,24.47
2018-08-10T18:32:53.110Z,24.23
2018-08-10T18:35:22.353Z,24.12
2018-08-10T18:37:52.053Z,23.93
2018-08-10T18:40:21.565Z,24.15
2018-08-10T18:42:51.177Z,24.27
2018-08-10T18:45:21.688Z,24.33
2018-08-10T18:47:50.964Z,24.18
2018-08-10T18:50:20.729Z,24.00
2018-08-10T18:52:49.956Z,24.07
2018-08-10T18:55:20.538Z,24.02
2018-08-10T18:57:50.174Z,23.97
2018-08-10T19:00:22.202Z,23.88
2018-08-10T19:02:51.418Z,23.81
2018-08-10T19:05:20.671Z,23.74
2018-08-10T19:07:50.206Z,23.68
2018-08-10T19:12:50.365Z,23.46
2018-08-10T19:15:19.982Z,23.44
2018-08-10T19:17:49.381Z,23.24
2018-08-10T19:20:18.749Z,21.71
2018-08-10T19:22:48.877Z,23.03
2018-08-10T19:25:18.389Z,22.89
2018-08-10T19:27:47.697Z,22.81
2018-08-10T19:30:19.154Z,22.71
2018-08-10T19:32:48.837Z,22.61
2018-08-10T19:35:18.642Z,22.50
2018-08-10T19:37:47.784Z,22.45
2018-08-10T19:40:18.508Z,22.27
2018-08-10T19:42:47.713Z,22.22
2018-08-10T19:45:17.529Z,22.09
2018-08-10T19:47:47.098Z,22.01
2018-08-10T19:50:17.461Z,21.90
2018-08-10T19:52:46.821Z,21.85
2018-08-10T19:55:16.209Z,21.78
2018-08-10T19:57:45.647Z,21.73
2018-08-10T20:00:16.836Z,21.59
2018-08-10T20:02:50.341Z,21.45
2018-08-10T20:05:19.658Z,21.41
2018-08-10T20:07:48.948Z,21.33
2018-08-10T20:10:18.615Z,21.27
2018-08-10T20:12:48.098Z,21.15
2018-08-10T20:15:18.720Z,21.10
2018-08-10T20:17:48.018Z,21.12
2018-08-10T20:20:18.633Z,21.08
2018-08-10T20:22:48.114Z,21.08
2018-08-10T20:25:17.666Z,21.04
2018-08-10T20:27:47.133Z,21.05
2018-08-10T20:30:18.000Z,21.01
2018-08-10T20:32:47.690Z,21.01
2018-08-10T20:35:18.378Z,20.96
2018-08-10T20:37:48.268Z,20.89
2018-08-10T20:40:19.291Z,20.84
2018-08-10T20:42:51.850Z,20.83
2018-08-10T20:45:21.468Z,20.86
2018-08-10T20:47:56.482Z,20.80
2018-08-10T20:50:27.521Z,20.77
2018-08-10T20:52:56.879Z,20.63
2018-08-10T20:55:26.218Z,20.50
2018-08-10T20:57:55.546Z,20.41
2018-08-10T21:00:25.020Z,20.35
2018-08-10T21:02:55.623Z,20.44
2018-08-10T21:05:25.019Z,20.39
2018-08-10T21:07:54.581Z,20.31
2018-08-10T21:10:23.989Z,20.09
2018-08-10T21:12:53.350Z,19.97
2018-08-10T21:15:22.758Z,19.91
2018-08-10T21:17:52.050Z,19.81
2018-08-10T21:20:21.448Z,19.79
2018-08-10T21:22:50.481Z,19.66
2018-08-10T21:25:19.841Z,19.70
2018-08-10T21:27:49.163Z,19.64
2018-08-10T21:30:19.816Z,19.60
2018-08-10T21:32:49.530Z,19.55
2018-08-10T21:35:18.735Z,19.49
2018-08-10T21:37:47.990Z,19.43
2018-08-10T21:40:17.206Z,19.34
2018-08-10T21:42:48.567Z,19.37
2018-08-10T21:45:18.033Z,19.29
2018-08-10T21:47:47.539Z,19.29
2018-08-10T21:50:16.874Z,19.24
2018-08-10T21:52:46.177Z,19.16
2018-08-10T21:55:15.510Z,19.15
2018-08-10T21:57:44.779Z,19.06
2018-08-10T22:00:25.504Z,19.00
2018-08-10T22:02:54.827Z,18.97
2018-08-10T22:05:24.162Z,18.82
2018-08-10T22:07:55.349Z,18.86
2018-08-10T22:10:24.927Z,18.85
2018-08-10T22:12:54.050Z,18.94
2018-08-10T22:15:28.540Z,18.86
2018-08-10T22:18:02.980Z,18.77
2018-08-10T22:20:32.358Z,18.76
2018-08-10T22:23:01.725Z,18.71
2018-08-10T22:25:31.303Z,18.70
2018-08-10T22:28:00.750Z,18.67
2018-08-10T22:30:30.042Z,18.70
2018-08-10T22:32:59.281Z,18.69
2018-08-10T22:35:28.431Z,18.70
2018-08-10T22:37:57.729Z,18.74
2018-08-10T22:40:27.164Z,18.76
2018-08-10T22:42:56.314Z,18.76
2018-08-10T22:45:26.506Z,18.79
2018-08-10T22:47:55.646Z,18.79
2018-08-10T22:50:25.333Z,18.80
2018-08-10T22:52:54.633Z,18.84
2018-08-10T22:55:23.705Z,18.73
2018-08-10T22:57:52.905Z,18.71
2018-08-10T23:00:28.349Z,18.64
2018-08-10T23:02:57.442Z,18.57
2018-08-10T23:05:26.768Z,17.48
2018-08-10T23:07:57.009Z,18.45
2018-08-10T23:10:26.270Z,18.33
2018-08-10T23:12:55.861Z,18.38
2018-08-10T23:15:25.119Z,18.24
2018-08-10T23:17:54.589Z,18.26
2018-08-10T23:20:23.732Z,18.10
2018-08-10T23:22:53.117Z,18.06
2018-08-10T23:25:22.586Z,18.12
2018-08-10T23:27:51.828Z,18.11
2018-08-10T23:30:21.207Z,18.13
2018-08-10T23:32:50.420Z,18.11
2018-08-10T23:35:19.687Z,18.10
2018-08-10T23:37:48.925Z,18.14
2018-08-10T23:40:18.122Z,18.13
2018-08-10T23:42:47.410Z,18.05
2018-08-10T23:45:16.474Z,17.97
2018-08-10T23:47:45.650Z,17.94
2018-08-10T23:50:17.090Z,17.88
2018-08-10T23:52:46.581Z,17.92
2018-08-10T23:55:17.602Z,17.94
2018-08-10T23:57:46.789Z,17.88
